Time;durP1;ratioP1;P1;durP2;ratioP2;P2;SDS_P1;SDS_P2;PMS_P1;PMS_P2;Temp;Humidity;BMP_temperature;BMP_pressure;BME280_temperature;BME280_humidity;BME280_pressure;Samples;Min_cycle;Max_cycle;Signal;HPM_P1;HPM_P2
2022/11/25 00:01:23;;;;;;;22.73;4.33;;;7.40;94.50;;;;;;5107201;28;20392;-89
2022/11/25 00:03:50;;;;;;;17.08;4.30;;;7.50;94.60;;;;;;5089424;28;20400;-88
2022/11/25 00:06:19;;;;;;;20.80;4.07;;;7.40;94.40;;;;;;5088601;28;20816;-88
2022/11/25 00:08:48;;;;;;;19.75;4.15;;;7.40;94.40;;;;;;5106880;28;20937;-87
2022/11/25 00:11:15;;;;;;;16.85;3.95;;;7.40;94.30;;;;;;5087343;28;20413;-87
2022/11/25 00:13:42;;;;;;;19.65;3.90;;;7.40;94.30;;;;;;5089595;28;20512;-86
2022/11/25 00:16:10;;;;;;;17.20;3.63;;;7.40;94.40;;;;;;5086366;28;21030;-88
2022/11/25 00:18:36;;;;;;;22.10;3.83;;;7.40;94.30;;;;;;5089769;28;20392;-87
2022/11/25 00:21:11;;;;;;;18.03;4.70;;;7.60;94.40;;;;;;5088917;28;20404;-87
2022/11/25 00:23:37;;;;;;;15.03;3.50;;;7.50;94.50;;;;;;5088109;28;20400;-88
2022/11/25 00:26:13;;;;;;;17.00;3.58;;;7.40;94.40;;;;;;5089558;28;20404;-87
2022/11/25 00:28:39;;;;;;;18.38;4.07;;;7.40;94.40;;;;;;5103636;28;20540;-85
2022/11/25 00:31:12;;;;;;;21.45;3.83;;;7.40;94.60;;;;;;5105873;28;20596;-86
2022/11/25 00:33:38;;;;;;;18.77;4.35;;;7.40;94.70;;;;;;5068815;28;20943;-85
2022/11/25 00:36:06;;;;;;;20.85;4.35;;;7.40;94.80;;;;;;5105118;28;20882;-86
2022/11/25 00:38:31;;;;;;;18.75;4.10;;;7.40;94.70;;;;;;5122137;27;20400;-86
2022/11/25 00:46:25;;;;;;;25.80;5.57;;;7.40;94.70;;;;;;5120072;27;20519;-86
2022/11/25 00:48:51;;;;;;;17.98;3.53;;;7.40;94.60;;;;;;5105385;28;20404;-85
2022/11/25 00:51:17;;;;;;;20.45;4.20;;;7.40;94.60;;;;;;5103965;28;20864;-86
2022/11/25 00:53:42;;;;;;;21.90;4.30;;;7.40;94.60;;;;;;5087221;28;20428;-86
2022/11/25 00:56:14;;;;;;;23.65;4.45;;;7.50;94.70;;;;;;5088262;28;20472;-86
2022/11/25 00:58:43;;;;;;;18.63;4.55;;;7.50;94.60;;;;;;5085658;28;21030;-87
2022/11/25 01:01:10;;;;;;;18.80;3.47;;;7.50;94.60;;;;;;5088524;28;20399;-86
2022/11/25 01:03:36;;;;;;;19.23;4.03;;;7.50;94.50;;;;;;5119890;27;20491;-87
2022/11/25 01:06:03;;;;;;;18.42;3.72;;;7.50;94.60;;;;;;5088419;28;20407;-87
2022/11/25 01:08:30;;;;;;;18.02;3.83;;;7.50;94.50;;;;;;5121462;27;20969;-86
2022/11/25 01:11:00;;;;;;;21.20;4.20;;;7.40;94.50;;;;;;5121052;27;20495;-86
2022/11/25 01:13:26;;;;;;;17.10;3.47;;;7.50;94.40;;;;;;5088157;28;20829;-85
2022/11/25 01:15:52;;;;;;;17.65;3.50;;;7.50;94.40;;;;;;5119605;27;20407;-86
2022/11/25 01:18:17;;;;;;;20.08;4.10;;;7.50;94.40;;;;;;5088155;28;20412;-86
2022/11/25 01:20:43;;;;;;;16.70;3.90;;;7.50;94.50;;;;;;5102779;28;20872;-86
2022/11/25 01:23:09;;;;;;;17.65;3.92;;;7.50;94.50;;;;;;5121972;27;20451;-86
2022/11/25 01:25:38;;;;;;;20.63;3.42;;;7.50;94.40;;;;;;5085873;28;20416;-86
2022/11/25 01:28:07;;;;;;;21.58;3.67;;;7.50;94.40;;;;;;5121136;27;20502;-87
2022/11/25 01:30:33;;;;;;;22.63;4.40;;;7.60;94.40;;;;;;5121595;27;20491;-86
2022/11/25 01:32:58;;;;;;;18.57;3.97;;;7.60;94.40;;;;;;5117539;28;20427;-87
2022/11/25 01:35:24;;;;;;;19.03;3.50;;;7.60;94.30;;;;;;5108397;28;20437;-86
2022/11/25 01:37:49;;;;;;;20.83;4.00;;;7.60;94.30;;;;;;5105288;28;20888;-86
2022/11/25 01:40:15;;;;;;;17.37;3.20;;;7.60;94.30;;;;;;5108476;28;20406;-87
2022/11/25 01:42:45;;;;;;;22.85;3.83;;;7.70;94.30;;;;;;5123302;28;20494;-87
2022/11/25 01:45:23;;;;;;;17.38;3.90;;;7.60;94.20;;;;;;5125348;28;20429;-86
2022/11/25 01:47:57;;;;;;;17.27;3.47;;;7.70;94.30;;;;;;5108150;28;20495;-86
2022/11/25 01:50:25;;;;;;;17.40;3.30;;;7.70;94.30;;;;;;5122634;28;20394;-87
2022/11/25 01:52:54;;;;;;;20.35;3.45;;;7.70;94.30;;;;;;5125172;28;20925;-87
2022/11/25 01:55:29;;;;;;;20.08;4.22;;;7.70;94.30;;;;;;5105921;28;20459;-88
2022/11/25 01:58:33;;;;;;;19.83;4.60;;;7.70;94.40;;;;;;5125826;28;20421;-88
2022/11/25 02:00:59;;;;;;;21.00;4.28;;;7.60;94.50;;;;;;5046309;28;20477;-87
2022/11/25 02:03:34;;;;;;;25.08;4.85;;;7.60;94.70;;;;;;5098683;28;20395;-88
2022/11/25 02:06:21;;;;;;;22.50;4.77;;;7.70;94.80;;;;;;5125425;28;20410;-87
2022/11/25 02:08:50;;;;;;;23.93;5.67;;;7.60;94.90;;;;;;5123964;28;20904;-87
2022/11/25 02:11:18;;;;;;;17.42;4.90;;;7.60;95.00;;;;;;5125375;28;20485;-88
2022/11/25 02:13:46;;;;;;;25.08;5.05;;;7.60;95.00;;;;;;5107987;28;20430;-87
2022/11/25 02:16:12;;;;;;;24.77;5.47;;;7.60;95.00;;;;;;5123941;28;20825;-87
2022/11/25 02:18:37;;;;;;;25.63;6.18;;;7.60;95.00;;;;;;5125831;28;20442;-88
2022/11/25 02:21:03;;;;;;;23.57;5.97;;;7.60;95.10;;;;;;5122994;28;20394;-89
2022/11/25 02:24:00;;;;;;;22.93;5.53;;;7.60;95.10;;;;;;5108175;28;20399;-88
2022/11/25 02:26:26;;;;;;;30.20;7.07;;;7.60;95.10;;;;;;5096006;28;20493;-87
2022/11/25 02:28:52;;;;;;;27.70;6.00;;;7.60;95.10;;;;;;5124198;28;20502;-87
2022/11/25 02:31:22;;;;;;;26.42;6.40;;;7.60;95.20;;;;;;5108728;27;20403;-86
2022/11/25 02:33:48;;;;;;;20.25;5.38;;;7.60;95.40;;;;;;5109127;27;20440;-87
2022/11/25 02:36:20;;;;;;;24.27;6.35;;;7.60;95.10;;;;;;5128440;27;21106;-88
2022/11/25 02:38:55;;;;;;;24.33;6.00;;;7.60;95.20;;;;;;5125661;27;20401;-87
2022/11/25 02:41:36;;;;;;;29.23;6.32;;;7.60;95.10;;;;;;5115116;27;20409;-86
2022/11/25 02:44:02;;;;;;;23.17;6.10;;;7.60;95.20;;;;;;5114962;27;20973;-86
2022/11/25 02:46:29;;;;;;;26.60;6.95;;;7.60;95.20;;;;;;5129673;27;20404;-87
2022/11/25 02:48:56;;;;;;;21.67;5.85;;;7.60;95.20;;;;;;5115157;27;20898;-87
2022/11/25 02:51:25;;;;;;;18.55;5.20;;;7.60;95.20;;;;;;5129686;27;20803;-88
2022/11/25 02:53:51;;;;;;;23.20;6.20;;;7.60;95.20;;;;;;5115329;27;20413;-87
2022/11/25 02:56:18;;;;;;;23.92;6.15;;;7.60;95.20;;;;;;5112561;27;20405;-88
2022/11/25 02:58:44;;;;;;;23.92;5.93;;;7.60;95.20;;;;;;5132004;27;20426;-88
2022/11/25 03:01:09;;;;;;;26.77;6.93;;;7.70;95.30;;;;;;5131145;27;20401;-86
2022/11/25 03:03:36;;;;;;;28.23;7.95;;;7.70;95.30;;;;;;5130377;27;20401;-87
2022/11/25 03:06:02;;;;;;;23.05;6.82;;;7.70;95.30;;;;;;5132130;27;20397;-89
2022/11/25 03:08:28;;;;;;;27.88;8.45;;;7.70;95.20;;;;;;5112706;27;20891;-87
2022/11/25 03:10:54;;;;;;;27.53;7.30;;;7.80;95.30;;;;;;5114629;27;20431;-87
2022/11/25 03:13:20;;;;;;;26.45;7.82;;;7.80;95.30;;;;;;5111874;27;20456;-86
2022/11/25 03:15:45;;;;;;;24.50;8.15;;;7.80;95.50;;;;;;5114856;27;20544;-86
2022/11/25 03:18:11;;;;;;;26.40;8.57;;;7.90;95.30;;;;;;5129482;27;20459;-86
2022/11/25 03:20:37;;;;;;;22.80;8.40;;;7.80;95.40;;;;;;5130704;27;20495;-86
2022/11/25 03:23:04;;;;;;;24.90;9.53;;;7.80;95.40;;;;;;5131024;27;20475;-86
2022/11/25 03:25:29;;;;;;;28.00;9.40;;;7.90;95.50;;;;;;5112380;27;20503;-87
2022/11/25 03:27:55;;;;;;;23.75;8.55;;;7.90;95.60;;;;;;5131252;27;20436;-87
2022/11/25 03:30:24;;;;;;;30.88;10.02;;;7.90;95.60;;;;;;5111510;27;20393;-88
2022/11/25 03:32:50;;;;;;;23.17;8.23;;;7.90;95.60;;;;;;5131330;27;20412;-88
2022/11/25 03:35:16;;;;;;;29.55;9.38;;;8.00;95.60;;;;;;5111563;27;20412;-86
2022/11/25 03:37:43;;;;;;;27.90;8.82;;;7.90;95.60;;;;;;5131030;27;20425;-87
2022/11/25 03:40:10;;;;;;;26.60;8.10;;;7.90;95.60;;;;;;5113622;27;20404;-86
2022/11/25 03:42:36;;;;;;;26.30;9.10;;;8.00;95.60;;;;;;5129642;27;20488;-88
2022/11/25 03:45:03;;;;;;;22.55;8.05;;;7.90;95.70;;;;;;5114104;27;20393;-89
2022/11/25 03:47:29;;;;;;;24.88;8.55;;;8.00;95.70;;;;;;5128405;27;20404;-88
2022/11/25 03:49:54;;;;;;;26.70;9.60;;;8.00;95.70;;;;;;5114263;27;20404;-88
2022/11/25 03:52:20;;;;;;;27.85;8.55;;;8.00;95.70;;;;;;5128567;27;20428;-87
2022/11/25 03:54:45;;;;;;;28.63;8.93;;;8.00;95.70;;;;;;5113906;27;20892;-88
2022/11/25 03:57:11;;;;;;;26.95;9.02;;;8.00;95.70;;;;;;5095701;27;20544;-87
2022/11/25 03:59:37;;;;;;;24.33;8.50;;;8.00;95.70;;;;;;5113137;27;20453;-87
2022/11/25 04:02:02;;;;;;;22.53;8.83;;;8.00;95.80;;;;;;5131030;27;20419;-87
2022/11/25 04:04:28;;;;;;;21.67;8.98;;;8.00;95.70;;;;;;5129024;27;20405;-87
2022/11/25 04:06:54;;;;;;;21.95;8.48;;;8.00;95.70;;;;;;5113919;27;20502;-89
2022/11/25 04:09:19;;;;;;;24.60;9.17;;;8.10;95.70;;;;;;5111160;27;20602;-88
2022/11/25 04:14:29;;;;;;;27.88;10.80;;;8.30;95.80;;;;;;5129403;27;20401;-87
2022/11/25 04:16:55;;;;;;;27.02;11.48;;;8.10;95.70;;;;;;5112783;27;20452;-88
2022/11/25 04:19:21;;;;;;;23.45;10.20;;;8.20;95.70;;;;;;5113142;27;20549;-87
2022/11/25 04:21:47;;;;;;;22.92;10.63;;;8.10;95.60;;;;;;5128549;27;20394;-87
2022/11/25 04:24:12;;;;;;;27.02;11.25;;;8.10;95.60;;;;;;5130946;27;20404;-87
2022/11/25 04:26:38;;;;;;;24.20;11.20;;;8.10;95.60;;;;;;5110854;27;20434;-87
2022/11/25 04:29:04;;;;;;;32.33;12.57;;;8.20;95.60;;;;;;5113374;27;20439;-89
2022/11/25 04:31:29;;;;;;;24.20;10.70;;;8.20;95.60;;;;;;5110427;27;21071;-88
2022/11/25 04:33:55;;;;;;;28.17;11.82;;;8.20;95.60;;;;;;5112873;27;20982;-87
2022/11/25 04:36:21;;;;;;;24.63;11.23;;;8.40;95.90;;;;;;5129413;27;20405;-88
2022/11/25 04:38:46;;;;;;;26.33;11.30;;;8.20;95.50;;;;;;5111438;27;20429;-88
2022/11/25 04:41:12;;;;;;;24.23;10.23;;;8.20;95.50;;;;;;5130020;27;20416;-87
2022/11/25 04:43:37;;;;;;;36.53;12.80;;;8.20;95.50;;;;;;5110619;27;20837;-87
2022/11/25 04:46:04;;;;;;;35.70;12.90;;;8.20;95.50;;;;;;5112775;27;20453;-89
2022/11/25 04:48:29;;;;;;;33.80;13.50;;;8.20;95.50;;;;;;5110211;27;20432;-88
2022/11/25 04:50:55;;;;;;;27.53;12.27;;;8.20;95.60;;;;;;5113052;27;20447;-87
2022/11/25 04:53:21;;;;;;;29.25;12.18;;;8.20;95.60;;;;;;5110668;27;20417;-87
2022/11/25 04:55:46;;;;;;;31.63;13.30;;;8.20;95.60;;;;;;5129447;27;20401;-86
2022/11/25 04:58:12;;;;;;;30.48;12.25;;;8.20;95.60;;;;;;5129313;27;20493;-87
2022/11/25 05:00:37;;;;;;;32.05;11.93;;;8.30;95.60;;;;;;5127614;27;20500;-88
2022/11/25 05:03:03;;;;;;;29.80;12.17;;;8.20;95.50;;;;;;5111601;27;20404;-87
2022/11/25 05:05:29;;;;;;;32.30;12.77;;;8.20;95.50;;;;;;5110025;27;20964;-87
2022/11/25 05:07:55;;;;;;;33.90;13.60;;;8.40;95.60;;;;;;5112654;27;20397;-87
2022/11/25 05:10:21;;;;;;;34.50;13.50;;;8.20;95.50;;;;;;5110062;27;20490;-86
2022/11/25 05:12:47;;;;;;;28.75;12.73;;;8.20;95.50;;;;;;5129399;27;20545;-87
2022/11/25 05:15:12;;;;;;;40.08;14.98;;;8.20;95.60;;;;;;5128197;27;20393;-87
2022/11/25 05:17:39;;;;;;;40.13;15.77;;;8.20;95.60;;;;;;5110999;27;20484;-88
2022/11/25 05:20:06;;;;;;;37.10;14.73;;;8.20;95.60;;;;;;5129772;27;20480;-88
2022/11/25 05:22:32;;;;;;;42.22;15.05;;;8.20;95.50;;;;;;5110020;27;20852;-87
2022/11/25 05:24:58;;;;;;;43.30;15.80;;;8.20;95.50;;;;;;5111975;27;20397;-88
2022/11/25 05:27:24;;;;;;;34.03;12.95;;;8.20;95.50;;;;;;5110099;27;20492;-88
2022/11/25 05:29:50;;;;;;;40.90;15.07;;;8.20;95.50;;;;;;5112050;27;20397;-87
2022/11/25 05:32:16;;;;;;;29.07;12.70;;;8.20;95.90;;;;;;5127095;27;20858;-87
2022/11/25 05:34:42;;;;;;;33.75;12.60;;;8.20;95.60;;;;;;5128611;27;20408;-87
2022/11/25 05:37:10;;;;;;;29.95;11.77;;;8.20;95.60;;;;;;5129515;27;20882;-87
2022/11/25 05:39:36;;;;;;;28.95;12.30;;;8.20;95.50;;;;;;5127074;27;20925;-88
2022/11/25 05:42:01;;;;;;;32.88;12.07;;;8.20;95.60;;;;;;5100890;27;20437;-89
2022/11/25 05:44:27;;;;;;;29.43;10.63;;;8.20;95.60;;;;;;5099707;27;20410;-88
2022/11/25 05:46:52;;;;;;;31.40;11.85;;;8.20;95.60;;;;;;5113071;27;20396;-88
2022/11/25 05:49:18;;;;;;;35.97;12.40;;;8.20;95.60;;;;;;5108812;28;20459;-88
2022/11/25 05:51:44;;;;;;;27.30;10.90;;;8.20;95.60;;;;;;5100106;27;21023;-88
2022/11/25 05:54:10;;;;;;;31.00;12.10;;;8.20;95.60;;;;;;5121564;27;20431;-87
2022/11/25 05:56:36;;;;;;;35.43;12.73;;;8.20;95.70;;;;;;5111327;27;20531;-88
2022/11/25 05:59:03;;;;;;;35.65;12.40;;;8.30;95.80;;;;;;5107196;28;20418;-88
2022/11/25 06:01:28;;;;;;;26.33;10.45;;;8.30;95.70;;;;;;5106452;28;20395;-88
2022/11/25 06:03:54;;;;;;;26.30;9.90;;;8.30;95.60;;;;;;5091637;28;20734;-87
2022/11/25 06:06:20;;;;;;;29.15;10.68;;;8.60;95.70;;;;;;5106053;28;20425;-89
2022/11/25 06:08:46;;;;;;;30.40;11.00;;;8.40;95.70;;;;;;5091782;28;20760;-88
2022/11/25 06:11:14;;;;;;;26.08;11.77;;;8.30;95.60;;;;;;5090026;28;20475;-90
2022/11/25 06:13:40;;;;;;;31.25;11.40;;;8.40;95.60;;;;;;5108785;28;20785;-91
2022/11/25 06:16:12;;;;;;;31.63;11.80;;;8.50;95.60;;;;;;5095887;27;20513;-86
2022/11/25 06:18:38;;;;;;;24.23;9.82;;;8.40;95.60;;;;;;5093230;27;20438;-88
2022/11/25 06:21:05;;;;;;;26.90;10.73;;;8.40;95.60;;;;;;5095674;27;20399;-89
2022/11/25 06:23:31;;;;;;;27.73;10.53;;;8.40;95.60;;;;;;5093267;27;20470;-88
2022/11/25 06:26:13;;;;;;;32.17;11.73;;;8.50;95.60;;;;;;5095140;27;20500;-89
2022/11/25 06:28:39;;;;;;;24.05;10.30;;;8.50;95.60;;;;;;5110989;27;20407;-88
2022/11/25 06:31:05;;;;;;;27.20;11.43;;;8.40;95.50;;;;;;5095257;27;20410;-89
2022/11/25 06:33:31;;;;;;;25.55;9.80;;;8.50;95.50;;;;;;5096184;27;20770;-89
2022/11/25 06:35:57;;;;;;;28.23;11.00;;;8.50;95.50;;;;;;5110583;27;20412;-89
2022/11/25 06:38:22;;;;;;;24.45;11.25;;;8.50;95.50;;;;;;5113835;27;20485;-88
2022/11/25 06:40:48;;;;;;;28.08;10.70;;;8.50;95.40;;;;;;5110620;27;20441;-88
2022/11/25 06:43:13;;;;;;;23.70;9.90;;;8.50;95.40;;;;;;5095927;27;20395;-89
2022/11/25 06:45:39;;;;;;;29.80;10.57;;;8.50;95.40;;;;;;5093803;27;20901;-88
2022/11/25 06:48:05;;;;;;;31.10;11.40;;;8.50;95.40;;;;;;5095475;27;20446;-89
2022/11/25 06:50:30;;;;;;;30.50;11.43;;;8.40;95.40;;;;;;5112418;27;20900;-88
2022/11/25 06:52:56;;;;;;;30.60;11.27;;;8.50;95.40;;;;;;5094133;27;20908;-88
2022/11/25 06:55:21;;;;;;;26.53;10.30;;;8.50;95.40;;;;;;5096250;27;20410;-89
2022/11/25 06:57:47;;;;;;;29.25;10.68;;;8.40;95.30;;;;;;5109686;27;20406;-87
2022/11/25 07:00:13;;;;;;;22.30;9.70;;;8.40;95.30;;;;;;5111919;27;20410;-87
2022/11/25 07:02:38;;;;;;;29.83;11.27;;;8.30;95.20;;;;;;5109876;27;20455;-87
2022/11/25 07:05:04;;;;;;;25.00;10.45;;;8.20;95.20;;;;;;5095117;27;20440;-88
2022/11/25 07:07:30;;;;;;;28.40;10.83;;;8.20;95.20;;;;;;5110751;27;20489;-88
2022/11/25 07:09:55;;;;;;;23.83;10.27;;;8.10;95.10;;;;;;5094356;27;20418;-89
2022/11/25 07:12:21;;;;;;;34.35;12.52;;;8.00;95.10;;;;;;5095479;27;20521;-90
2022/11/25 07:14:50;;;;;;;28.10;11.67;;;8.00;95.10;;;;;;5091737;27;20956;-89
2022/11/25 07:17:15;;;;;;;29.65;11.85;;;7.90;95.20;;;;;;5095994;27;20410;-90
2022/11/25 07:19:41;;;;;;;29.25;11.57;;;7.90;95.20;;;;;;5098842;27;20450;-90
2022/11/25 07:22:07;;;;;;;33.77;12.60;;;7.90;95.20;;;;;;5095359;27;20822;-90
2022/11/25 07:24:32;;;;;;;34.70;12.00;;;7.70;95.10;;;;;;5092527;27;21024;-89
2022/11/25 07:26:58;;;;;;;32.72;12.73;;;7.70;95.20;;;;;;5111640;27;20410;-89
2022/11/25 07:29:24;;;;;;;31.13;12.63;;;7.70;95.40;;;;;;5094628;27;20448;-90
2022/11/25 07:31:49;;;;;;;28.55;11.70;;;7.60;95.20;;;;;;5093494;27;20458;-90
2022/11/25 07:34:18;;;;;;;29.52;12.73;;;7.60;95.40;;;;;;5095172;27;20903;-91
2022/11/25 07:36:44;;;;;;;28.10;11.38;;;7.60;95.40;;;;;;5094771;27;20868;-92
2022/11/25 07:39:16;;;;;;;29.65;12.25;;;7.60;95.40;;;;;;5111358;27;20802;-88
2022/11/25 07:41:42;;;;;;;30.83;12.75;;;7.80;95.60;;;;;;5092177;27;20398;-88
2022/11/25 07:44:11;;;;;;;29.75;12.65;;;7.50;95.40;;;;;;5094161;27;20409;-89
2022/11/25 07:46:40;;;;;;;28.38;11.73;;;7.50;95.50;;;;;;5123027;27;20452;-86
2022/11/25 07:49:14;;;;;;;32.37;13.00;;;7.50;95.40;;;;;;5113876;27;20834;-89
2022/11/25 07:51:48;;;;;;;33.72;13.45;;;7.50;95.50;;;;;;5131613;27;20472;-88
2022/11/25 07:54:14;;;;;;;39.30;14.67;;;7.50;95.60;;;;;;5129513;27;20409;-89
2022/11/25 07:56:41;;;;;;;38.33;14.90;;;7.50;95.50;;;;;;5114388;27;20401;-89
2022/11/25 07:59:10;;;;;;;33.25;13.93;;;7.50;95.70;;;;;;5111316;27;20393;-88
2022/11/25 08:01:36;;;;;;;27.08;11.68;;;7.50;95.50;;;;;;5114258;27;20404;-88
2022/11/25 08:04:02;;;;;;;30.42;12.23;;;7.50;95.60;;;;;;5113582;27;20389;-88
2022/11/25 08:06:28;;;;;;;28.35;11.93;;;7.50;95.60;;;;;;5113377;27;20401;-89
2022/11/25 08:08:56;;;;;;;31.05;13.02;;;7.50;95.50;;;;;;5131486;27;20401;-88
2022/11/25 08:11:23;;;;;;;25.63;10.90;;;7.50;95.50;;;;;;5111931;27;20419;-88
2022/11/25 08:13:49;;;;;;;27.85;11.98;;;7.50;95.60;;;;;;5114419;27;20464;-88
2022/11/25 08:16:16;;;;;;;24.60;11.40;;;7.50;95.70;;;;;;5128642;27;20408;-89
2022/11/25 08:18:42;;;;;;;27.85;11.45;;;7.60;95.80;;;;;;5114370;27;20389;-89
2022/11/25 08:21:10;;;;;;;25.70;11.18;;;7.60;95.70;;;;;;5112297;27;20408;-88
2022/11/25 08:23:37;;;;;;;27.83;12.10;;;7.60;95.60;;;;;;5130659;27;20981;-88
2022/11/25 08:26:12;;;;;;;26.45;11.50;;;7.60;95.50;;;;;;5130780;27;20397;-90
2022/11/25 08:28:40;;;;;;;22.13;9.40;;;7.60;95.60;;;;;;5111509;27;20400;-89
2022/11/25 08:31:15;;;;;;;19.85;9.88;;;7.70;95.90;;;;;;5130789;27;20405;-89
2022/11/25 08:33:40;;;;;;;25.13;10.75;;;7.80;95.60;;;;;;5111579;27;20507;-88
2022/11/25 08:36:06;;;;;;;21.90;9.67;;;7.70;95.60;;;;;;5113667;27;20485;-88
2022/11/25 08:38:33;;;;;;;19.00;8.75;;;7.70;95.60;;;;;;5129141;27;21177;-89
2022/11/25 08:40:59;;;;;;;19.13;8.60;;;7.60;95.50;;;;;;5112646;27;20858;-88
2022/11/25 08:43:26;;;;;;;18.77;8.47;;;7.80;95.60;;;;;;5113549;27;20491;-88
2022/11/25 08:45:51;;;;;;;17.67;9.32;;;7.80;95.60;;;;;;5128815;27;20960;-90
2022/11/25 08:48:19;;;;;;;18.13;8.87;;;7.90;95.60;;;;;;5113799;27;20389;-88
2022/11/25 08:50:53;;;;;;;19.42;9.20;;;7.90;95.50;;;;;;5128377;27;20405;-88
2022/11/25 08:53:20;;;;;;;17.33;7.97;;;7.90;95.50;;;;;;5112867;27;20501;-90
2022/11/25 08:55:46;;;;;;;20.45;8.52;;;7.90;95.50;;;;;;5111344;27;20394;-88
2022/11/25 08:58:12;;;;;;;19.38;8.35;;;7.90;95.50;;;;;;5129481;27;20408;-88
2022/11/25 09:00:40;;;;;;;16.80;7.67;;;8.00;95.50;;;;;;5112855;27;20397;-89
2022/11/25 09:03:06;;;;;;;20.77;9.40;;;8.00;95.50;;;;;;5110909;27;20401;-88
2022/11/25 09:05:34;;;;;;;16.45;7.43;;;8.10;95.80;;;;;;5129773;27;20928;-88
2022/11/25 09:08:05;;;;;;;18.35;8.63;;;8.10;95.30;;;;;;5127642;27;20909;-89
2022/11/25 09:10:32;;;;;;;19.80;8.63;;;8.10;95.40;;;;;;5113065;27;20922;-88
2022/11/25 09:12:58;;;;;;;16.80;7.55;;;8.20;95.30;;;;;;5127878;27;20437;-87
2022/11/25 09:15:25;;;;;;;15.85;8.05;;;8.20;95.30;;;;;;5129676;27;20389;-88
2022/11/25 09:18:02;;;;;;;15.85;7.90;;;8.40;95.20;;;;;;5112770;27;20412;-88
2022/11/25 09:20:28;;;;;;;14.55;6.80;;;8.30;95.10;;;;;;5127370;27;20424;-87
2022/11/25 09:22:54;;;;;;;13.35;6.35;;;8.40;95.20;;;;;;5112630;27;20433;-88
2022/11/25 09:25:22;;;;;;;13.48;6.40;;;8.50;95.20;;;;;;5127830;27;20460;-89
2022/11/25 09:27:48;;;;;;;11.00;5.60;;;9.10;94.60;;;;;;5112713;27;20393;-89
2022/11/25 09:30:14;;;;;;;14.77;5.93;;;9.50;93.80;;;;;;5127765;27;20484;-86
2022/11/25 09:32:39;;;;;;;13.63;5.55;;;9.60;93.40;;;;;;5111962;27;20416;-89
2022/11/25 09:35:05;;;;;;;13.07;5.72;;;10.10;93.30;;;;;;5112488;27;20774;-89
2022/11/25 09:37:31;;;;;;;11.43;5.03;;;10.10;92.90;;;;;;5110706;27;20443;-89
2022/11/25 09:39:56;;;;;;;10.53;4.67;;;10.30;92.50;;;;;;5112938;27;20423;-87
2022/11/25 09:48:47;;;;;;;13.13;5.68;;;10.80;91.60;;;;;;5130780;27;20508;-90
2022/11/25 09:51:31;;;;;;;10.60;4.28;;;11.00;91.40;;;;;;5132134;27;20426;-90
2022/11/25 09:54:08;;;;;;;9.02;3.92;;;11.40;90.70;;;;;;5117402;27;20428;-87
2022/11/25 09:56:39;;;;;;;13.60;4.93;;;11.10;89.40;;;;;;5116703;27;20436;-90
2022/11/25 09:59:22;;;;;;;10.77;4.40;;;10.80;90.30;;;;;;5116134;27;20413;-92
2022/11/25 10:01:54;;;;;;;9.63;4.30;;;10.60;90.50;;;;;;5117662;27;20496;-92
2022/11/25 10:04:32;;;;;;;9.02;4.03;;;10.30;90.80;;;;;;5132307;27;20415;-92
2022/11/25 10:07:01;;;;;;;12.15;5.20;;;10.20;91.20;;;;;;5117645;27;20812;-90
2022/11/25 10:09:31;;;;;;;11.00;4.55;;;10.40;91.60;;;;;;5116410;27;20886;-90
2022/11/25 10:12:24;;;;;;;8.48;4.13;;;10.60;91.20;;;;;;5116285;27;20454;-90
2022/11/25 10:15:00;;;;;;;10.03;4.60;;;10.60;90.80;;;;;;5115985;27;20440;-88
2022/11/25 10:17:44;;;;;;;11.15;4.70;;;11.00;90.90;;;;;;5131900;27;20428;-90
2022/11/25 10:20:18;;;;;;;14.23;5.53;;;11.70;90.00;;;;;;5134837;27;20393;-92
2022/11/25 10:22:47;;;;;;;10.20;4.00;;;11.60;89.30;;;;;;5116786;27;20546;-90
2022/11/25 10:25:19;;;;;;;9.67;4.23;;;11.90;88.40;;;;;;5103782;27;20448;-89
2022/11/25 10:27:56;;;;;;;10.05;3.50;;;11.90;88.00;;;;;;5113407;27;20406;-90
2022/11/25 10:30:38;;;;;;;11.02;4.68;;;11.40;88.20;;;;;;5094486;27;20722;-89
2022/11/25 10:33:20;;;;;;;9.47;3.80;;;11.60;88.70;;;;;;5095040;27;20428;-90
2022/11/25 10:35:53;;;;;;;10.20;3.80;;;12.20;86.50;;;;;;5096675;27;20414;-92
2022/11/25 10:38:29;;;;;;;9.77;3.15;;;13.00;84.90;;;;;;5100410;28;20400;-90
2022/11/25 10:40:59;;;;;;;9.82;3.83;;;13.50;81.80;;;;;;5092434;28;20412;-90
2022/11/25 10:43:25;;;;;;;11.82;3.58;;;13.70;80.90;;;;;;5090075;28;20396;-90
2022/11/25 10:46:22;;;;;;;11.20;3.60;;;14.00;79.80;;;;;;5092939;28;20412;-89
2022/11/25 10:49:13;;;;;;;9.88;3.45;;;13.40;81.00;;;;;;5092178;28;20400;-90
2022/11/25 10:51:44;;;;;;;9.07;2.87;;;12.80;83.20;;;;;;5107212;28;20435;-91
2022/11/25 10:54:13;;;;;;;12.50;3.30;;;12.50;85.80;;;;;;5092636;28;20443;-91
2022/11/25 10:56:56;;;;;;;13.15;3.13;;;12.20;86.50;;;;;;5089767;28;20412;-89
2022/11/25 10:59:33;;;;;;;14.20;2.80;;;11.70;87.80;;;;;;5107797;28;20408;-90
2022/11/25 11:02:23;;;;;;;9.88;2.70;;;11.40;89.40;;;;;;5126169;27;20423;-92
2022/11/25 11:04:53;;;;;;;10.63;3.00;;;11.70;90.40;;;;;;5100780;27;20421;-93
2022/11/25 11:07:20;;;;;;;11.63;3.25;;;11.90;90.00;;;;;;5092307;28;20483;-90
2022/11/25 11:09:47;;;;;;;14.15;3.22;;;11.60;89.50;;;;;;5089991;28;20404;-91
2022/11/25 11:12:26;;;;;;;10.48;2.60;;;11.40;90.20;;;;;;5101041;27;20935;-91
2022/11/25 11:15:09;;;;;;;11.75;2.58;;;11.40;90.60;;;;;;5094512;27;20942;-92
2022/11/25 11:17:35;;;;;;;11.45;2.00;;;11.80;90.10;;;;;;5087016;28;20475;-88
2022/11/25 11:20:07;;;;;;;11.77;2.28;;;12.10;87.50;;;;;;5109572;28;21150;-90
2022/11/25 11:22:35;;;;;;;12.98;2.40;;;12.00;88.90;;;;;;5089783;28;20440;-90
2022/11/25 11:25:25;;;;;;;12.25;2.17;;;11.90;88.90;;;;;;5092396;28;20451;-90
2022/11/25 11:27:51;;;;;;;12.75;2.30;;;11.70;89.70;;;;;;5108604;28;20404;-90
2022/11/25 11:30:23;;;;;;;12.98;2.40;;;11.80;88.70;;;;;;5090131;28;20438;-89
2022/11/25 11:33:26;;;;;;;10.98;2.17;;;11.80;89.80;;;;;;5108654;28;20825;-89
2022/11/25 11:36:20;;;;;;;12.90;2.33;;;12.10;87.40;;;;;;5124424;27;20497;-91
2022/11/25 11:39:13;;;;;;;12.60;2.10;;;12.90;86.90;;;;;;5062429;28;20415;-91
2022/11/25 11:42:09;;;;;;;10.57;2.10;;;13.30;84.20;;;;;;5109910;28;20408;-89
2022/11/25 11:45:03;;;;;;;11.40;1.88;;;13.80;82.80;;;;;;5084209;28;20404;-90
2022/11/25 11:47:52;;;;;;;13.63;2.40;;;13.70;81.20;;;;;;5107015;28;20408;-91
2022/11/25 11:50:25;;;;;;;11.75;2.22;;;13.40;83.10;;;;;;5092150;28;20408;-89
2022/11/25 11:53:03;;;;;;;10.20;1.83;;;14.00;81.80;;;;;;5089442;28;20424;-90
2022/11/25 11:55:34;;;;;;;10.07;1.90;;;15.00;80.80;;;;;;5108474;28;20404;-89
2022/11/25 11:58:09;;;;;;;14.17;2.17;;;15.30;77.70;;;;;;5108219;28;20414;-89
2022/11/25 12:01:10;;;;;;;11.63;2.28;;;14.70;78.80;;;;;;5123708;27;20485;-90
2022/11/25 12:03:42;;;;;;;12.38;1.98;;;14.00;81.10;;;;;;5083404;28;20836;-90
2022/11/25 12:06:09;;;;;;;13.65;2.67;;;13.40;83.00;;;;;;5089582;28;20392;-89
2022/11/25 12:08:47;;;;;;;10.80;2.15;;;12.80;86.00;;;;;;5090830;28;20402;-90
2022/11/25 12:11:23;;;;;;;13.63;2.00;;;12.90;86.80;;;;;;5125235;27;20420;-91
2022/11/25 12:13:59;;;;;;;16.83;2.20;;;13.10;86.20;;;;;;5088431;28;20420;-90
2022/11/25 12:16:36;;;;;;;13.27;2.10;;;12.80;87.50;;;;;;5108547;28;20409;-91
2022/11/25 12:19:32;;;;;;;13.30;2.20;;;12.70;87.60;;;;;;5106242;28;20419;-88
2022/11/25 12:22:04;;;;;;;11.88;1.85;;;12.50;87.20;;;;;;5106611;28;21171;-90
2022/11/25 12:24:48;;;;;;;12.30;2.00;;;12.40;87.90;;;;;;5091111;28;20568;-90
2022/11/25 12:27:25;;;;;;;12.25;2.40;;;12.60;89.30;;;;;;5088518;28;20458;-90
2022/11/25 12:30:16;;;;;;;13.27;2.00;;;12.90;88.80;;;;;;5090838;28;20416;-90
2022/11/25 12:32:55;;;;;;;12.68;2.33;;;13.00;87.10;;;;;;5090538;28;20930;-89
2022/11/25 12:35:55;;;;;;;13.02;2.20;;;12.90;86.40;;;;;;5088684;28;20429;-88
2022/11/25 12:38:45;;;;;;;11.70;2.10;;;13.00;86.90;;;;;;5107709;28;20413;-89
2022/11/25 12:41:36;;;;;;;14.38;2.55;;;13.00;87.80;;;;;;5090045;28;20427;-89
2022/11/25 12:44:30;;;;;;;16.10;1.95;;;13.00;87.60;;;;;;5105358;28;20972;-90
2022/11/25 12:46:57;;;;;;;13.15;1.65;;;12.80;88.90;;;;;;5090950;28;20417;-90
2022/11/25 12:49:42;;;;;;;13.00;2.20;;;12.70;86.40;;;;;;5088569;28;20401;-88
2022/11/25 12:52:56;;;;;;;12.13;2.15;;;12.50;87.30;;;;;;5089441;28;20440;-89
2022/11/25 12:55:26;;;;;;;14.10;2.08;;;12.30;88.80;;;;;;5077697;28;20797;-90
2022/11/25 12:58:23;;;;;;;13.50;2.05;;;12.50;88.30;;;;;;5087988;28;20396;-87
2022/11/25 13:01:07;;;;;;;14.10;2.10;;;12.50;89.30;;;;;;5106405;28;20794;-92
2022/11/25 13:04:03;;;;;;;15.43;2.15;;;12.80;87.40;;;;;;5107603;28;20416;-89
2022/11/25 13:06:41;;;;;;;13.52;2.10;;;13.00;87.60;;;;;;5105032;28;20432;-88
2022/11/25 13:09:07;;;;;;;13.63;2.25;;;13.10;85.20;;;;;;5090356;28;20408;-89
2022/11/25 13:11:45;;;;;;;13.05;2.20;;;13.00;86.70;;;;;;5106951;28;20805;-90